Time;durP1;ratioP1;P1;durP2;ratioP2;P2;SDS_P1;SDS_P2;PMS_P1;PMS_P2;Temp;Humidity;BMP_temperature;BMP_pressure;BME280_temperature;BME280_humidity;BME280_pressure;Samples;Min_cycle;Max_cycle;Signal;HPM_P1;HPM_P2
2021/12/14 00:00:10;;;;;;;0.60;0.10;;;9.60;1.00;;;;;;5035357;28;20454;-64
2021/12/14 00:02:40;;;;;;;0.50;0.10;;;9.60;1.00;;;;;;5034741;28;20462;-64
2021/12/14 00:05:10;;;;;;;0.57;0.10;;;9.60;1.00;;;;;;5034306;28;20813;-64
2021/12/14 00:07:40;;;;;;;0.50;0.10;;;9.60;1.00;;;;;;5033945;28;20457;-64
2021/12/14 00:10:29;;;;;;;0.60;0.10;;;9.70;1.00;;;;;;5033413;28;20461;-64
2021/12/14 00:13:02;;;;;;;0.50;0.10;;;9.60;1.00;;;;;;5033881;28;20482;-64
2021/12/14 00:15:32;;;;;;;0.57;0.10;;;9.70;1.00;;;;;;5021645;28;20444;-64
2021/12/14 00:18:03;;;;;;;0.60;0.10;;;9.70;1.00;;;;;;5014342;28;20443;-64
2021/12/14 00:20:35;;;;;;;0.50;0.10;;;9.60;1.00;;;;;;5015838;28;20444;-64
2021/12/14 00:25:55;;;;;;;0.50;0.10;;;9.70;1.00;;;;;;5035197;28;20439;-64
2021/12/14 00:28:27;;;;;;;0.50;0.10;;;9.70;1.00;;;;;;5033964;28;20451;-64
2021/12/14 00:30:58;;;;;;;0.50;0.10;;;9.70;1.00;;;;;;5033987;28;20435;-64
2021/12/14 00:33:32;;;;;;;0.50;0.10;;;9.70;1.00;;;;;;5033290;28;20965;-64
2021/12/14 00:36:01;;;;;;;0.50;0.10;;;9.70;1.00;;;;;;5033517;28;20462;-64
2021/12/14 00:38:31;;;;;;;0.50;0.10;;;9.80;1.00;;;;;;5033613;28;20457;-63
2021/12/14 00:41:02;;;;;;;0.50;0.10;;;9.80;1.00;;;;;;5033266;28;20791;-64
2021/12/14 00:43:30;;;;;;;0.50;0.10;;;9.70;1.00;;;;;;5033285;28;20469;-64
2021/12/14 00:45:58;;;;;;;0.50;0.10;;;9.80;1.00;;;;;;5032753;28;20443;-65
2021/12/14 00:48:26;;;;;;;0.50;0.10;;;9.70;1.00;;;;;;5032809;28;20447;-65
2021/12/14 00:50:58;;;;;;;0.60;0.10;;;9.70;1.00;;;;;;5032501;28;20457;-64
2021/12/14 00:53:27;;;;;;;0.50;0.10;;;9.70;1.00;;;;;;5033136;28;20513;-65
2021/12/14 00:56:00;;;;;;;2.60;2.40;;;9.70;1.00;;;;;;5032830;28;20447;-65
2021/12/14 00:58:28;;;;;;;0.50;0.10;;;9.70;1.00;;;;;;5032880;28;20450;-65
2021/12/14 01:01:00;;;;;;;0.50;0.10;;;9.70;1.00;;;;;;5032851;28;20447;-64
2021/12/14 01:03:31;;;;;;;0.60;0.57;;;9.70;1.00;;;;;;5032859;28;20459;-63
2021/12/14 01:06:00;;;;;;;0.50;0.10;;;9.70;1.00;;;;;;5032813;28;20513;-63
2021/12/14 01:08:34;;;;;;;0.60;0.10;;;9.70;1.00;;;;;;5032806;28;20803;-65
2021/12/14 01:11:08;;;;;;;0.50;0.10;;;9.70;1.00;;;;;;5032578;28;20816;-64
2021/12/14 01:13:42;;;;;;;0.50;0.10;;;9.70;1.00;;;;;;5032305;28;21152;-64
2021/12/14 01:16:17;;;;;;;0.60;0.10;;;9.70;1.00;;;;;;5032439;28;20833;-64
2021/12/14 01:18:49;;;;;;;0.50;0.10;;;9.60;1.00;;;;;;5032475;28;20461;-65
2021/12/14 01:21:28;;;;;;;0.57;0.10;;;9.60;1.00;;;;;;5032296;28;20939;-64
2021/12/14 01:24:04;;;;;;;0.50;0.10;;;9.60;1.00;;;;;;5031910;28;20984;-64
2021/12/14 01:26:37;;;;;;;0.50;0.10;;;9.60;1.00;;;;;;5032500;28;20469;-64
2021/12/14 01:29:07;;;;;;;0.50;0.10;;;9.60;1.00;;;;;;5032294;28;20451;-64
2021/12/14 01:31:38;;;;;;;0.57;0.10;;;9.60;1.00;;;;;;5032243;28;21151;-63
2021/12/14 01:34:12;;;;;;;0.50;0.10;;;9.60;1.00;;;;;;5031868;28;20475;-64
2021/12/14 01:36:44;;;;;;;0.50;0.10;;;9.70;1.00;;;;;;5032519;28;20432;-63
2021/12/14 01:39:46;;;;;;;3.23;1.70;;;9.70;1.00;;;;;;5032283;28;20466;-63
2021/12/14 01:42:18;;;;;;;0.50;0.10;;;9.70;1.00;;;;;;5032394;28;20554;-64
2021/12/14 01:44:55;;;;;;;0.50;0.10;;;9.70;1.00;;;;;;5031763;28;20848;-64
2021/12/14 01:47:26;;;;;;;0.50;0.10;;;9.70;1.00;;;;;;5033272;28;20460;-64
2021/12/14 01:49:55;;;;;;;0.53;0.10;;;9.60;1.00;;;;;;5031623;28;20454;-64
2021/12/14 01:52:25;;;;;;;0.60;0.30;;;9.60;1.00;;;;;;5031081;28;20477;-65
2021/12/14 01:54:57;;;;;;;0.60;0.40;;;9.50;1.00;;;;;;5030156;28;20486;-65
2021/12/14 01:57:30;;;;;;;0.60;0.10;;;9.50;1.00;;;;;;5031747;28;20465;-65
2021/12/14 02:00:01;;;;;;;0.50;0.10;;;9.50;1.00;;;;;;5031731;28;20451;-63
2021/12/14 02:02:34;;;;;;;0.50;0.10;;;9.50;1.00;;;;;;5031637;28;20470;-65
2021/12/14 02:05:06;;;;;;;0.60;0.10;;;9.50;1.00;;;;;;5031704;28;20459;-64
2021/12/14 02:07:35;;;;;;;0.50;0.10;;;9.50;1.00;;;;;;5032177;28;20451;-64
2021/12/14 02:10:09;;;;;;;0.60;0.10;;;9.50;1.00;;;;;;5031664;28;20448;-64
2021/12/14 02:12:42;;;;;;;0.50;0.10;;;9.50;1.00;;;;;;5032055;28;20471;-64
2021/12/14 02:15:13;;;;;;;1.63;1.17;;;9.50;1.00;;;;;;5031393;28;20475;-64
2021/12/14 02:17:42;;;;;;;0.50;0.10;;;9.40;1.00;;;;;;5031030;28;20449;-64
2021/12/14 02:20:12;;;;;;;0.70;0.17;;;9.40;1.00;;;;;;5029706;28;20450;-64
2021/12/14 02:22:42;;;;;;;0.50;0.10;;;9.50;1.00;;;;;;5030393;28;20482;-64
2021/12/14 02:25:11;;;;;;;0.57;0.30;;;9.50;1.00;;;;;;5030045;28;20811;-64
2021/12/14 02:27:43;;;;;;;0.50;0.10;;;9.50;1.00;;;;;;5031102;28;20445;-64
2021/12/14 02:30:15;;;;;;;0.50;0.10;;;9.50;1.00;;;;;;5031498;28;20446;-64
2021/12/14 02:32:43;;;;;;;0.50;0.10;;;9.50;1.00;;;;;;5034185;28;20481;-64
2021/12/14 02:35:16;;;;;;;0.50;0.10;;;9.50;1.00;;;;;;5035672;28;20486;-64
2021/12/14 02:37:49;;;;;;;0.50;0.20;;;9.60;1.00;;;;;;5035639;28;20829;-64
2021/12/14 02:40:20;;;;;;;0.53;0.13;;;9.60;1.00;;;;;;5035227;28;20464;-64
2021/12/14 02:42:51;;;;;;;0.50;0.10;;;9.70;1.00;;;;;;5035351;28;20467;-63
2021/12/14 02:45:22;;;;;;;0.50;0.10;;;9.60;1.00;;;;;;5034795;28;20450;-63
2021/12/14 02:47:50;;;;;;;0.50;0.10;;;9.70;1.00;;;;;;5035781;28;20446;-64
2021/12/14 02:50:19;;;;;;;0.50;0.10;;;9.60;1.00;;;;;;5035103;28;20470;-65
2021/12/14 02:52:48;;;;;;;0.50;0.10;;;9.60;1.00;;;;;;5035496;28;20472;-64
2021/12/14 02:55:19;;;;;;;0.50;0.10;;;9.60;1.00;;;;;;5035209;28;20505;-64
2021/12/14 02:57:50;;;;;;;0.50;0.20;;;9.60;1.00;;;;;;5035127;28;20443;-64
2021/12/14 03:00:22;;;;;;;9.13;8.50;;;9.60;1.00;;;;;;5035000;28;20447;-64
2021/12/14 03:02:50;;;;;;;2.97;2.77;;;9.60;1.00;;;;;;5035101;28;20471;-63
2021/12/14 03:05:22;;;;;;;0.50;0.10;;;9.50;1.00;;;;;;5034955;28;20449;-64
2021/12/14 03:07:54;;;;;;;0.70;0.10;;;9.50;1.00;;;;;;5035331;28;20443;-64
2021/12/14 03:10:36;;;;;;;0.50;0.10;;;9.50;1.00;;;;;;5034535;28;20454;-64
2021/12/14 03:13:06;;;;;;;0.50;0.10;;;9.60;1.00;;;;;;5035065;28;20462;-64
2021/12/14 03:15:42;;;;;;;0.50;0.10;;;9.50;1.00;;;;;;5034884;28;20491;-64
2021/12/14 03:18:14;;;;;;;0.50;0.10;;;9.50;1.00;;;;;;5034936;28;20441;-64
2021/12/14 03:20:46;;;;;;;1.60;0.20;;;9.50;1.00;;;;;;5034355;28;20778;-64
2021/12/14 03:23:19;;;;;;;15.77;8.70;;;9.50;1.00;;;;;;5063158;23;20501;-70
2021/12/14 03:25:52;;;;;;;0.50;0.10;;;9.50;1.00;;;;;;5054862;28;20449;-69
2021/12/14 03:28:23;;;;;;;0.50;0.10;;;9.50;1.00;;;;;;5054430;28;20453;-69
2021/12/14 03:31:00;;;;;;;0.60;0.10;;;9.50;1.00;;;;;;5054500;28;20434;-68
2021/12/14 03:33:33;;;;;;;0.60;0.10;;;9.50;1.00;;;;;;5054416;28;20814;-70
2021/12/14 03:36:05;;;;;;;0.50;0.10;;;9.50;1.00;;;;;;5054248;28;20529;-69
2021/12/14 03:38:39;;;;;;;0.50;0.10;;;9.40;1.00;;;;;;5054758;28;20476;-69
2021/12/14 03:41:11;;;;;;;0.50;0.10;;;9.40;1.00;;;;;;5054554;28;20441;-69
2021/12/14 03:43:42;;;;;;;8.93;3.40;;;9.40;1.00;;;;;;5053926;28;20470;-69
2021/12/14 03:46:11;;;;;;;0.70;0.50;;;9.30;1.00;;;;;;5053941;28;20461;-69
2021/12/14 03:48:40;;;;;;;2.40;2.30;;;9.30;1.00;;;;;;5052371;28;20554;-71
2021/12/14 03:51:08;;;;;;;0.50;0.10;;;9.20;1.00;;;;;;5053424;28;20481;-68
2021/12/14 03:53:38;;;;;;;0.50;0.10;;;10.10;1.00;;;;;;5052796;28;20474;-68
2021/12/14 03:56:08;;;;;;;0.50;0.10;;;9.20;1.00;;;;;;5053609;28;20862;-68
2021/12/14 03:58:39;;;;;;;0.50;0.30;;;9.20;1.00;;;;;;5053923;28;20985;-68
2021/12/14 04:01:10;;;;;;;0.57;0.20;;;9.20;1.00;;;;;;5053636;28;20450;-67
2021/12/14 04:03:38;;;;;;;0.50;0.10;;;9.20;1.00;;;;;;5049598;28;21002;-68
2021/12/14 04:06:07;;;;;;;0.50;0.10;;;9.20;1.00;;;;;;5053944;28;20927;-70
2021/12/14 04:08:35;;;;;;;0.50;0.10;;;9.20;1.00;;;;;;5053817;28;20457;-68
2021/12/14 04:11:07;;;;;;;0.60;0.20;;;9.10;1.00;;;;;;5053847;28;20956;-68
2021/12/14 04:13:40;;;;;;;0.70;0.30;;;9.10;1.00;;;;;;5056064;28;20476;-68
2021/12/14 04:16:09;;;;;;;0.50;0.20;;;9.10;1.00;;;;;;5053587;28;20508;-68
2021/12/14 04:18:38;;;;;;;0.50;0.10;;;9.10;1.00;;;;;;5049318;28;20447;-69
2021/12/14 04:21:06;;;;;;;0.50;0.10;;;9.10;1.00;;;;;;5053050;28;20468;-69
2021/12/14 04:23:36;;;;;;;0.57;0.20;;;9.10;1.00;;;;;;5053487;28;20470;-68
2021/12/14 04:26:08;;;;;;;4.83;1.90;;;9.10;1.00;;;;;;5053779;28;20438;-68
2021/12/14 04:28:39;;;;;;;0.50;0.20;;;9.10;1.00;;;;;;5053307;28;20453;-70
2021/12/14 04:31:07;;;;;;;0.50;0.20;;;9.00;1.00;;;;;;5053154;28;20449;-67
2021/12/14 04:33:38;;;;;;;1.33;1.13;;;9.00;1.00;;;;;;5053093;28;20462;-68
2021/12/14 04:36:09;;;;;;;0.50;0.10;;;9.00;1.00;;;;;;5053414;28;20531;-69
2021/12/14 04:38:47;;;;;;;0.57;0.10;;;10.30;1.00;;;;;;5053487;28;20450;-67
2021/12/14 04:52:28;;;;;;;3.03;1.80;;;9.10;1.00;;;;;;5032864;28;20449;-70
2021/12/14 04:54:58;;;;;;;0.50;0.10;;;9.10;1.00;;;;;;5048503;28;20480;-67
2021/12/14 04:57:31;;;;;;;0.90;0.77;;;9.10;1.00;;;;;;5052465;28;20450;-70
2021/12/14 05:00:14;;;;;;;4.53;2.20;;;9.10;1.00;;;;;;5052473;28;20794;-69
2021/12/14 05:02:43;;;;;;;0.57;0.40;;;9.10;1.00;;;;;;5052998;28;20461;-68
2021/12/14 05:05:16;;;;;;;0.60;0.20;;;9.00;1.00;;;;;;5052573;28;20450;-68
2021/12/14 05:09:19;;;;;;;0.50;0.10;;;8.90;1.00;;;;;;5053113;28;20453;-67
2021/12/14 05:10:41;;;;;;;0.50;0.10;;;8.90;1.00;;;;;;5052289;28;20449;-68
2021/12/14 05:13:11;;;;;;;0.87;0.87;;;8.90;1.00;;;;;;5052274;28;20454;-68
2021/12/14 05:15:40;;;;;;;0.50;0.10;;;9.00;1.00;;;;;;5052280;28;20482;-68
2021/12/14 05:18:10;;;;;;;0.50;0.10;;;8.90;1.00;;;;;;5052694;28;20445;-69
2021/12/14 05:20:41;;;;;;;0.50;0.10;;;9.00;1.00;;;;;;5052291;28;20531;-68
2021/12/14 05:23:09;;;;;;;0.50;0.10;;;9.10;1.00;;;;;;5052451;28;20477;-68
2021/12/14 05:25:38;;;;;;;0.50;0.20;;;9.00;1.00;;;;;;5052298;28;20472;-68
2021/12/14 05:28:13;;;;;;;0.50;0.10;;;9.00;1.00;;;;;;5052367;28;20450;-69
2021/12/14 05:30:46;;;;;;;0.50;0.10;;;9.10;1.00;;;;;;5050479;28;20466;-68
2021/12/14 05:33:17;;;;;;;0.60;0.10;;;9.10;1.00;;;;;;5040951;28;20481;-67
2021/12/14 05:35:47;;;;;;;3.93;0.83;;;9.10;1.00;;;;;;5051541;28;20485;-68
2021/12/14 05:38:20;;;;;;;0.50;0.10;;;9.10;1.00;;;;;;5034919;28;20442;-69
2021/12/14 05:41:08;;;;;;;0.50;0.13;;;9.10;1.00;;;;;;5052250;28;20843;-70
2021/12/14 05:43:35;;;;;;;0.50;0.10;;;9.10;1.00;;;;;;5052973;28;20479;-69
2021/12/14 05:46:07;;;;;;;0.53;0.10;;;9.10;1.00;;;;;;5052766;28;20446;-67
2021/12/14 05:48:37;;;;;;;0.50;0.10;;;9.10;1.00;;;;;;5053709;28;20464;-68
2021/12/14 05:51:08;;;;;;;0.50;0.10;;;9.10;1.00;;;;;;5053315;28;20454;-68
2021/12/14 05:53:38;;;;;;;0.50;0.10;;;9.20;1.00;;;;;;5052804;28;20838;-68
2021/12/14 05:56:10;;;;;;;0.50;0.10;;;9.20;1.00;;;;;;5052137;28;20462;-69
2021/12/14 05:58:38;;;;;;;0.50;0.10;;;9.20;1.00;;;;;;5051577;28;20958;-69
2021/12/14 06:01:11;;;;;;;0.50;0.10;;;9.20;1.00;;;;;;5051348;28;20974;-69
2021/12/14 06:03:41;;;;;;;0.50;0.10;;;9.30;1.00;;;;;;5051583;28;20477;-68
2021/12/14 06:06:16;;;;;;;2.63;2.53;;;9.20;1.00;;;;;;5051013;28;20469;-68
2021/12/14 06:08:44;;;;;;;0.70;0.40;;;9.20;1.00;;;;;;5051662;28;20472;-68
2021/12/14 06:11:20;;;;;;;0.60;0.47;;;9.20;1.00;;;;;;5051210;28;20940;-66
2021/12/14 06:13:49;;;;;;;0.50;0.10;;;9.20;1.00;;;;;;5053147;28;20476;-66
2021/12/14 06:16:27;;;;;;;1.30;1.07;;;9.20;1.00;;;;;;5052181;28;20485;-69
2021/12/14 06:19:11;;;;;;;5.20;2.83;;;9.10;1.00;;;;;;5051687;28;20438;-68
2021/12/14 06:21:39;;;;;;;4.07;2.73;;;9.00;1.00;;;;;;5051590;28;20450;-69
2021/12/14 06:24:10;;;;;;;3.57;3.37;;;8.90;1.00;;;;;;5050893;28;20474;-69
2021/12/14 06:26:40;;;;;;;0.60;0.53;;;8.80;1.00;;;;;;5046877;28;20797;-68
2021/12/14 06:29:11;;;;;;;0.50;0.10;;;8.80;1.00;;;;;;5050892;28;20461;-68
2021/12/14 06:31:41;;;;;;;0.50;0.10;;;8.90;1.00;;;;;;5050506;28;20489;-69
2021/12/14 06:34:20;;;;;;;4.93;4.43;;;8.80;1.00;;;;;;5051696;28;20515;-70
2021/12/14 06:37:19;;;;;;;1.80;1.23;;;8.90;1.00;;;;;;5051604;28;20476;-68
2021/12/14 06:40:01;;;;;;;0.50;0.10;;;8.90;1.00;;;;;;5049929;28;20480;-70
2021/12/14 06:42:29;;;;;;;0.50;0.10;;;8.90;1.00;;;;;;5050658;28;20970;-70
2021/12/14 06:45:09;;;;;;;0.53;0.20;;;8.90;1.00;;;;;;5050761;28;20446;-70
2021/12/14 06:47:40;;;;;;;0.50;0.10;;;9.00;1.00;;;;;;5048909;28;20464;-69
2021/12/14 06:50:12;;;;;;;0.50;0.10;;;9.00;1.00;;;;;;5047746;28;20459;-70
2021/12/14 06:52:40;;;;;;;0.50;0.10;;;9.10;1.00;;;;;;5051355;28;20466;-69
2021/12/14 06:55:19;;;;;;;0.50;0.10;;;9.10;1.00;;;;;;5050822;28;20437;-69
2021/12/14 06:57:47;;;;;;;0.50;0.10;;;9.10;1.00;;;;;;5050039;28;20480;-69
2021/12/14 07:00:16;;;;;;;1.13;1.03;;;9.10;1.00;;;;;;5044797;28;20816;-71
2021/12/14 07:02:49;;;;;;;0.50;0.30;;;9.20;1.00;;;;;;5050924;28;20467;-70
2021/12/14 07:05:19;;;;;;;1.63;1.13;;;9.20;1.00;;;;;;5049834;28;20551;-69
2021/12/14 07:07:47;;;;;;;0.50;0.10;;;9.10;1.00;;;;;;5030729;28;20457;-69
2021/12/14 07:10:16;;;;;;;0.50;0.10;;;9.10;1.00;;;;;;5035479;28;20451;-70
2021/12/14 07:12:45;;;;;;;1.60;1.50;;;9.10;1.00;;;;;;5047707;28;20987;-69
2021/12/14 07:15:23;;;;;;;0.50;0.10;;;9.10;1.00;;;;;;5046326;28;20461;-71
2021/12/14 07:18:01;;;;;;;0.50;0.10;;;9.10;1.00;;;;;;5050162;28;20489;-69
2021/12/14 07:20:32;;;;;;;0.60;0.20;;;9.10;1.00;;;;;;5048278;28;20999;-69
2021/12/14 07:23:02;;;;;;;0.50;0.20;;;9.20;1.00;;;;;;5054517;28;20473;-70
2021/12/14 07:25:31;;;;;;;0.50;0.20;;;9.20;1.00;;;;;;5054380;28;20438;-68
2021/12/14 07:28:01;;;;;;;0.50;0.10;;;9.20;1.00;;;;;;5052513;28;20458;-69
2021/12/14 07:30:32;;;;;;;0.50;0.17;;;10.20;1.00;;;;;;5048399;28;20932;-69
2021/12/14 07:33:05;;;;;;;0.60;0.57;;;9.20;1.00;;;;;;5054104;28;20770;-67
2021/12/14 07:35:53;;;;;;;0.50;0.20;;;9.20;1.00;;;;;;5054424;28;20442;-68
2021/12/14 07:38:40;;;;;;;0.50;0.10;;;9.20;1.00;;;;;;5054092;28;20423;-68
2021/12/14 07:41:17;;;;;;;0.50;0.20;;;9.20;1.00;;;;;;5051882;28;20465;-69
2021/12/14 07:43:49;;;;;;;0.60;0.20;;;9.20;1.00;;;;;;5050555;28;20462;-69
2021/12/14 07:46:23;;;;;;;1.87;0.67;;;9.20;1.00;;;;;;5046413;28;20920;-67
2021/12/14 07:48:55;;;;;;;0.50;0.10;;;9.10;1.00;;;;;;5053890;28;20441;-69
2021/12/14 07:51:25;;;;;;;0.50;0.10;;;9.10;1.00;;;;;;5055302;28;20544;-69
2021/12/14 07:53:56;;;;;;;0.50;0.10;;;9.10;1.00;;;;;;5053791;28;20472;-68
2021/12/14 07:56:34;;;;;;;0.50;0.10;;;9.20;1.00;;;;;;5046983;28;20919;-69
2021/12/14 07:59:08;;;;;;;0.50;0.10;;;8.70;1.00;;;;;;5052416;28;20824;-69
2021/12/14 08:01:36;;;;;;;0.50;0.20;;;9.10;1.00;;;;;;5053250;28;20816;-68
2021/12/14 08:04:10;;;;;;;0.57;0.30;;;9.10;1.00;;;;;;5052982;28;20484;-69
2021/12/14 08:06:51;;;;;;;6.50;1.73;;;9.10;1.00;;;;;;5053871;28;20456;-69
2021/12/14 08:09:33;;;;;;;0.50;0.10;;;9.10;1.00;;;;;;5047468;28;20454;-69
2021/12/14 08:12:02;;;;;;;0.50;0.10;;;9.10;1.00;;;;;;5053035;28;20463;-69
2021/12/14 08:14:31;;;;;;;3.43;3.13;;;9.00;1.00;;;;;;5052816;28;20457;-68
2021/12/14 08:17:02;;;;;;;2.83;1.47;;;9.00;1.00;;;;;;5053302;28;20493;-68
2021/12/14 08:19:35;;;;;;;0.50;0.10;;;9.00;1.00;;;;;;5042902;28;20454;-68
2021/12/14 08:22:13;;;;;;;0.77;0.67;;;8.90;1.00;;;;;;5053498;28;20801;-67
2021/12/14 08:24:49;;;;;;;0.60;0.20;;;8.90;1.00;;;;;;5050897;28;20939;-67
2021/12/14 08:27:24;;;;;;;2.20;0.77;;;8.90;1.00;;;;;;5046764;28;20803;-67
2021/12/14 08:29:55;;;;;;;0.50;0.10;;;9.00;1.00;;;;;;5052420;28;20835;-68
2021/12/14 08:32:26;;;;;;;1.27;1.17;;;9.10;1.00;;;;;;5052766;28;20536;-68
2021/12/14 08:34:56;;;;;;;0.90;0.60;;;9.00;1.00;;;;;;5053528;28;20461;-69
2021/12/14 08:37:32;;;;;;;2.90;1.50;;;9.00;1.00;;;;;;5054206;28;20477;-68
2021/12/14 08:40:05;;;;;;;0.53;0.10;;;9.10;1.00;;;;;;5050870;28;20546;-68
2021/12/14 08:42:41;;;;;;;0.50;0.10;;;9.00;1.00;;;;;;5053980;28;20462;-66
2021/12/14 08:45:26;;;;;;;0.53;0.27;;;9.00;1.00;;;;;;5054383;28;20452;-67
2021/12/14 08:47:59;;;;;;;0.50;0.10;;;9.00;1.00;;;;;;5052771;28;20478;-69
2021/12/14 08:50:28;;;;;;;2.33;2.23;;;9.00;1.00;;;;;;5053535;28;20438;-67
2021/12/14 08:52:57;;;;;;;0.50;0.10;;;9.00;1.00;;;;;;5053839;28;20462;-68
2021/12/14 08:55:31;;;;;;;7.53;5.77;;;9.00;1.00;;;;;;5053345;28;20995;-69
2021/12/14 08:58:00;;;;;;;0.60;0.30;;;9.00;1.00;;;;;;5054465;28;20496;-69
2021/12/14 09:00:32;;;;;;;2.10;2.00;;;9.10;1.00;;;;;;5056224;28;20452;-68
2021/12/14 09:03:01;;;;;;;0.50;0.10;;;9.10;1.00;;;;;;5058292;28;20564;-68
2021/12/14 09:05:34;;;;;;;0.50;0.10;;;9.10;1.00;;;;;;5060068;28;20535;-68
2021/12/14 09:08:04;;;;;;;10.90;10.43;;;9.10;1.00;;;;;;5054066;28;20447;-68
2021/12/14 09:10:35;;;;;;;0.50;0.20;;;9.10;1.00;;;;;;5053067;28;20993;-67
2021/12/14 09:13:10;;;;;;;0.50;0.10;;;9.10;1.00;;;;;;5049986;28;20481;-69
2021/12/14 09:15:42;;;;;;;0.50;0.10;;;9.10;1.00;;;;;;5053957;28;20441;-68
2021/12/14 09:18:10;;;;;;;0.50;0.10;;;9.10;1.00;;;;;;5053043;28;20485;-69
2021/12/14 09:20:44;;;;;;;0.60;0.10;;;9.10;1.00;;;;;;5051955;28;20670;-68
2021/12/14 09:23:15;;;;;;;0.50;0.10;;;9.10;1.00;;;;;;5051889;28;20944;-68
2021/12/14 09:25:44;;;;;;;9.07;5.40;;;9.10;1.00;;;;;;5053113;28;20927;-69
2021/12/14 09:28:12;;;;;;;0.77;0.73;;;9.10;1.00;;;;;;5053536;28;20439;-69
2021/12/14 09:30:54;;;;;;;2.20;2.07;;;9.00;1.00;;;;;;5052774;28;20460;-68
2021/12/14 09:33:23;;;;;;;0.57;0.17;;;9.00;1.00;;;;;;5052538;28;20457;-68
2021/12/14 09:35:55;;;;;;;1.70;1.03;;;9.00;1.00;;;;;;5052292;28;20454;-69
2021/12/14 09:38:32;;;;;;;0.60;0.53;;;9.00;1.00;;;;;;5051853;28;20477;-69
2021/12/14 09:41:04;;;;;;;2.10;1.03;;;8.90;1.00;;;;;;5042064;28;20446;-68
2021/12/14 09:43:34;;;;;;;5.37;4.13;;;8.80;1.00;;;;;;5031055;28;20462;-68
2021/12/14 09:46:03;;;;;;;3.07;0.77;;;8.80;1.00;;;;;;5031009;28;20457;-69
2021/12/14 09:48:36;;;;;;;1.67;1.57;;;8.80;1.00;;;;;;5032026;28;20446;-68
2021/12/14 09:51:10;;;;;;;7.47;4.90;;;8.80;1.00;;;;;;5032505;28;20455;-69
2021/12/14 09:53:43;;;;;;;0.50;0.10;;;8.70;1.00;;;;;;5033921;28;20468;-69
2021/12/14 09:56:14;;;;;;;0.50;0.10;;;8.70;1.00;;;;;;5051288;28;20459;-70
2021/12/14 09:58:47;;;;;;;1.17;1.03;;;8.70;1.00;;;;;;5050391;28;21022;-69
2021/12/14 10:01:22;;;;;;;0.50;0.10;;;8.80;1.00;;;;;;5031868;28;20475;-68
2021/12/14 10:03:58;;;;;;;7.37;2.67;;;8.90;1.00;;;;;;5037752;28;21021;-72
2021/12/14 10:06:31;;;;;;;0.60;0.23;;;8.90;1.00;;;;;;5045639;28;20453;-70
2021/12/14 10:09:03;;;;;;;0.50;0.10;;;8.90;1.00;;;;;;5051020;28;20806;-68
2021/12/14 10:11:43;;;;;;;0.50;0.10;;;8.90;1.00;;;;;;5051809;28;20431;-70
2021/12/14 10:14:13;;;;;;;0.50;0.10;;;8.90;1.00;;;;;;5051679;28;20492;-70
2021/12/14 10:16:42;;;;;;;0.50;0.10;;;9.00;1.00;;;;;;5048645;28;20463;-71
2021/12/14 10:19:13;;;;;;;0.60;0.40;;;9.00;1.00;;;;;;5040576;28;20506;-71
2021/12/14 10:21:46;;;;;;;0.50;0.10;;;9.00;1.00;;;;;;5051057;28;20462;-71
2021/12/14 10:24:14;;;;;;;0.97;0.97;;;9.10;1.00;;;;;;5031789;28;20558;-70
2021/12/14 10:26:47;;;;;;;0.70;0.70;;;9.10;1.00;;;;;;5032771;28;20809;-70
2021/12/14 10:29:15;;;;;;;0.50;0.10;;;9.10;1.00;;;;;;5031558;28;20443;-70
2021/12/14 10:31:51;;;;;;;2.10;2.00;;;8.30;1.00;;;;;;5046064;28;20457;-71
2021/12/14 10:34:24;;;;;;;0.50;0.10;;;9.20;1.00;;;;;;5050062;28;20462;-69
2021/12/14 10:37:07;;;;;;;0.50;0.10;;;9.20;1.00;;;;;;5050359;28;20460;-70
2021/12/14 10:39:38;;;;;;;0.50;0.10;;;9.20;1.00;;;;;;5049848;28;20839;-70
2021/12/14 10:45:02;;;;;;;0.50;0.10;;;9.30;1.00;;;;;;5051386;28;20514;-71
2021/12/14 10:47:31;;;;;;;0.83;0.83;;;9.30;1.00;;;;;;5051542;28;20832;-69
2021/12/14 10:50:01;;;;;;;0.50;0.10;;;9.30;1.00;;;;;;5051820;28;20536;-69
2021/12/14 10:52:32;;;;;;;0.73;0.73;;;9.30;1.00;;;;;;5050871;28;20450;-69
2021/12/14 10:55:05;;;;;;;0.60;0.10;;;9.30;1.00;;;;;;5055430;28;20967;-70
2021/12/14 10:57:35;;;;;;;0.50;0.10;;;9.30;1.00;;;;;;5055447;28;20437;-70
2021/12/14 11:00:09;;;;;;;0.70;0.60;;;8.70;1.00;;;;;;5054867;28;20446;-70
2021/12/14 11:02:41;;;;;;;0.50;0.10;;;9.30;1.00;;;;;;5049803;28;20519;-71
2021/12/14 11:05:16;;;;;;;0.50;0.10;;;9.30;1.00;;;;;;5055394;28;20937;-71
2021/12/14 11:07:49;;;;;;;0.50;0.10;;;9.30;1.00;;;;;;5055991;28;20445;-69
2021/12/14 11:10:22;;;;;;;0.50;0.10;;;9.30;1.00;;;;;;5049544;28;20871;-72
2021/12/14 11:12:54;;;;;;;25.00;24.00;;;9.30;1.00;;;;;;5049099;28;20484;-69
2021/12/14 11:15:25;;;;;;;0.50;0.10;;;9.30;1.00;;;;;;5045172;28;20459;-68
2021/12/14 11:18:10;;;;;;;0.70;0.70;;;9.30;1.00;;;;;;5054701;28;20446;-70
2021/12/14 11:20:43;;;;;;;0.50;0.10;;;9.40;1.00;;;;;;5064054;28;20437;-69
2021/12/14 11:23:16;;;;;;;0.50;0.10;;;9.40;1.00;;;;;;5062804;28;20469;-70
2021/12/14 11:25:57;;;;;;;0.50;0.10;;;9.40;1.00;;;;;;5048187;28;20482;-71
2021/12/14 11:28:32;;;;;;;0.50;0.10;;;9.40;1.00;;;;;;5048272;28;20434;-70
2021/12/14 11:31:05;;;;;;;0.50;0.10;;;9.40;1.00;;;;;;5052442;28;20537;-69
2021/12/14 11:33:36;;;;;;;0.50;0.20;;;9.40;1.00;;;;;;5049047;28;20535;-72
2021/12/14 11:36:12;;;;;;;0.50;0.10;;;9.40;1.00;;;;;;5054380;28;20438;-71
2021/12/14 11:38:47;;;;;;;0.60;0.10;;;9.40;1.00;;;;;;5053982;28;20474;-69
2021/12/14 11:41:32;;;;;;;0.50;0.10;;;9.30;1.00;;;;;;5053410;28;20455;-69
2021/12/14 11:44:07;;;;;;;0.50;0.10;;;9.40;1.00;;;;;;5051803;28;20469;-71
2021/12/14 11:46:55;;;;;;;0.50;0.10;;;9.30;1.00;;;;;;5053085;28;20460;-70
2021/12/14 11:49:38;;;;;;;0.50;0.10;;;9.30;1.00;;;;;;5052472;28;20460;-70
2021/12/14 11:52:07;;;;;;;0.50;0.10;;;9.40;1.00;;;;;;5054110;28;20821;-68
2021/12/14 11:54:43;;;;;;;0.60;0.10;;;9.40;1.00;;;;;;5054921;28;20469;-69
2021/12/14 11:57:16;;;;;;;0.50;0.10;;;9.40;1.00;;;;;;5053629;28;20446;-71
2021/12/14 11:59:44;;;;;;;0.50;0.10;;;9.40;1.00;;;;;;5060676;28;20481;-70
2021/12/14 12:02:12;;;;;;;0.57;0.20;;;;;;;;;;5053044;28;20460;-70
2021/12/14 12:04:47;;;;;;;0.60;0.30;;;9.40;1.00;;;;;;5053265;28;20537;-69
2021/12/14 12:10:07;;;;;;;0.50;0.10;;;9.30;1.00;;;;;;5053634;28;20434;-70
2021/12/14 12:12:39;;;;;;;0.50;0.10;;;9.30;1.00;;;;;;5053640;28;20466;-70
2021/12/14 12:15:10;;;;;;;0.50;0.20;;;9.30;1.00;;;;;;5053828;28;20855;-69
2021/12/14 12:17:41;;;;;;;0.50;0.10;;;9.30;1.00;;;;;;5051089;28;20462;-71
2021/12/14 12:20:18;;;;;;;0.50;0.10;;;9.30;1.00;;;;;;5053398;28;20481;-70
2021/12/14 12:22:48;;;;;;;0.50;0.10;;;9.40;1.00;;;;;;5053656;28;20474;-69
2021/12/14 12:25:20;;;;;;;0.50;0.10;;;9.40;1.00;;;;;;5051413;28;20464;-69
2021/12/14 12:27:50;;;;;;;0.80;0.77;;;9.40;1.00;;;;;;5053695;28;20442;-69
2021/12/14 12:30:33;;;;;;;0.50;0.10;;;9.40;1.00;;;;;;5054751;28;20434;-70
2021/12/14 12:33:18;;;;;;;1.27;1.07;;;9.40;1.00;;;;;;5056526;28;20461;-69
2021/12/14 12:35:51;;;;;;;0.50;0.10;;;9.40;1.00;;;;;;5055999;28;20541;-69
2021/12/14 12:38:40;;;;;;;0.50;0.10;;;10.70;1.00;;;;;;5053643;28;20449;-69
2021/12/14 12:41:16;;;;;;;0.50;0.10;;;9.40;1.00;;;;;;5053813;28;20928;-69
2021/12/14 12:43:47;;;;;;;0.50;0.10;;;9.40;1.00;;;;;;5054763;28;20454;-70
2021/12/14 12:46:21;;;;;;;0.60;0.10;;;9.40;1.00;;;;;;5056860;28;20454;-69
2021/12/14 12:49:02;;;;;;;0.50;0.10;;;9.40;1.00;;;;;;5056601;28;20536;-69
2021/12/14 12:51:53;;;;;;;0.50;0.20;;;9.40;1.00;;;;;;5054529;28;20810;-69
2021/12/14 12:54:57;;;;;;;17.17;11.33;;;9.20;1.00;;;;;;5053559;28;20508;-69
2021/12/14 12:57:54;;;;;;;0.60;0.40;;;9.20;1.00;;;;;;5047377;28;20563;-69
2021/12/14 13:00:29;;;;;;;1.60;1.50;;;9.10;1.00;;;;;;5052826;28;20476;-70
2021/12/14 13:03:02;;;;;;;15.80;14.37;;;9.10;1.00;;;;;;5052588;28;20552;-69
2021/12/14 13:05:36;;;;;;;0.50;0.10;;;9.10;1.00;;;;;;5052886;28;20446;-69
2021/12/14 13:08:18;;;;;;;0.50;0.10;;;9.10;1.00;;;;;;5052786;28;20449;-67
2021/12/14 13:10:51;;;;;;;0.50;0.20;;;9.10;1.00;;;;;;5053091;28;20471;-69
2021/12/14 13:13:23;;;;;;;0.50;0.10;;;9.10;1.00;;;;;;5052609;28;20497;-69
2021/12/14 13:16:08;;;;;;;2.83;2.63;;;9.10;1.00;;;;;;5053143;28;20466;-69
2021/12/14 13:18:43;;;;;;;0.60;0.10;;;9.10;1.00;;;;;;5055019;28;20453;-69
2021/12/14 13:21:16;;;;;;;0.50;0.10;;;9.20;1.00;;;;;;5054423;28;20536;-69
2021/12/14 13:23:54;;;;;;;0.50;0.10;;;9.20;1.00;;;;;;5052467;28;20509;-68
2021/12/14 13:26:32;;;;;;;0.50;0.10;;;8.40;1.00;;;;;;5052475;28;20481;-69
2021/12/14 13:29:14;;;;;;;0.60;0.40;;;9.20;1.00;;;;;;5052745;28;20812;-69
2021/12/14 13:31:47;;;;;;;1.00;0.80;;;9.20;1.00;;;;;;5053053;28;20444;-69
2021/12/14 13:34:39;;;;;;;2.10;2.00;;;9.20;1.00;;;;;;5052766;28;20476;-70
2021/12/14 13:37:10;;;;;;;0.50;0.10;;;9.20;1.00;;;;;;5052947;28;20442;-69
2021/12/14 13:39:40;;;;;;;2.90;2.63;;;9.20;1.00;;;;;;5052161;28;20477;-68
2021/12/14 13:42:35;;;;;;;6.43;1.70;;;9.30;1.00;;;;;;5052451;28;20849;-69
2021/12/14 13:45:07;;;;;;;0.50;0.10;;;9.20;1.00;;;;;;5052319;28;20456;-70
2021/12/14 13:47:35;;;;;;;0.50;0.10;;;9.20;1.00;;;;;;5052806;28;20456;-69
2021/12/14 13:50:08;;;;;;;0.50;0.10;;;9.20;1.00;;;;;;5052585;28;20448;-69
2021/12/14 13:52:36;;;;;;;0.60;0.10;;;9.30;1.00;;;;;;5052082;28;20498;-69
2021/12/14 13:55:30;;;;;;;0.50;0.10;;;9.30;1.00;;;;;;5051839;28;20446;-68
2021/12/14 13:58:02;;;;;;;0.50;0.10;;;9.30;1.00;;;;;;5052084;28;20453;-69